»·PEaware :: SKW4651 KAMA-KDEN

SKW4651 :: KAMA-KDEN

FLIGHT INFORMATION

Flight Status: Arrived
Operator:
SkyWest Airlines
More flights by this operator :: More flights under this callsign
Pilot: James C. (37539)
Aircraft: EMBRAER EMB-170/175
(E170)
More flights by this aircraft type
Origin: KAMA Amarillo Intl
United States
Destination: KDEN Denver Intl
United States
More flights between these airports :: More routes between these airports
Route: PNH ZIGEE NIIXX3
File this flight plan on PilotEdge
Remarks: RMK / SIMBRIEF
Altitude:
(Current/Filed)
30,000ft
Speed:
(Current/Filed)
406kts
Departed: 01-Mar-22 10:03 AM
Arrived: 01-Mar-22 11:05 AM
Distance/Time
Traveled:
312nm/1:02
Distance/Time
To Go:
Arrived

Flight Plot

Page will automatically refresh every two minutes.

Flight plan parsing failed; only flown route is shown


Map Options




Map Legend


Flown Route
Filed Route
Departure Airport
Arrival Airport
Navaid (VOR, NDB)
Fix

Horizontal Profiles

Position Reports

Time Latitude Longitude Heading Altitude Ground
Speed
01-Mar-22 09:33 39.859206 -104.670236 180 5442ft 0kts
01-Mar-22 09:34 39.859206 -104.670236 180 5442ft 0kts
01-Mar-22 09:35 39.859206 -104.670236 180 5442ft 0kts
01-Mar-22 09:36 39.859206 -104.670236 180 5442ft 0kts
01-Mar-22 09:37 39.859206 -104.670236 180 5442ft 0kts
01-Mar-22 09:38 35.217009 -101.710866 134 3618ft 0kts
01-Mar-22 09:39 35.217009 -101.710866 134 3618ft 0kts
01-Mar-22 09:40 35.217009 -101.710866 134 3618ft 0kts
01-Mar-22 09:41 35.217009 -101.710866 134 3618ft 0kts
01-Mar-22 09:42 35.217009 -101.710866 134 3618ft 0kts
01-Mar-22 09:43 35.217009 -101.710866 134 3618ft 0kts
01-Mar-22 09:44 35.217009 -101.710866 134 3618ft 0kts
01-Mar-22 09:45 35.217009 -101.710866 134 3618ft 0kts
01-Mar-22 09:46 35.217009 -101.710866 134 3618ft 0kts
01-Mar-22 09:47 35.217009 -101.710866 134 3618ft 0kts
01-Mar-22 09:48 35.217009 -101.710866 134 3618ft 0kts
01-Mar-22 09:49 35.217009 -101.710866 134 3618ft 0kts
01-Mar-22 09:50 35.217009 -101.710866 134 3618ft 0kts
01-Mar-22 09:51 35.217009 -101.710866 134 3618ft 0kts
01-Mar-22 09:52 35.217372 -101.711324 131 3618ft 2kts
01-Mar-22 09:53 35.217605 -101.712103 46 3618ft 1kts
01-Mar-22 09:54 35.217544 -101.712182 46 3618ft 0kts
01-Mar-22 09:55 35.217544 -101.712181 46 3618ft 0kts
01-Mar-22 09:56 35.218005 -101.711591 46 3618ft 16kts
01-Mar-22 09:57 35.223137 -101.704990 46 3618ft 27kts
01-Mar-22 09:58 35.227058 -101.700900 15 3618ft 14kts
01-Mar-22 09:59 35.229893 -101.699457 318 3618ft 0kts
01-Mar-22 10:00 35.229894 -101.699458 318 3618ft 0kts
01-Mar-22 10:01 35.230573 -101.700389 267 3618ft 6kts
01-Mar-22 10:02 35.210809 -101.725618 227 4089ft 177kts
01-Mar-22 10:03 35.173635 -101.770252 224 6327ft 222kts
01-Mar-22 10:04 35.128452 -101.823870 224 9798ft 234kts
01-Mar-22 10:05 35.117304 -101.893676 318 12098ft 271kts
01-Mar-22 10:06 35.199431 -101.926551 347 13339ft 349kts
01-Mar-22 10:07 35.294916 -101.959861 344 16189ft 362kts
01-Mar-22 10:08 35.393632 -101.995326 345 18610ft 377kts
01-Mar-22 10:09 35.496676 -102.032376 344 20686ft 395kts
01-Mar-22 10:10 35.603447 -102.070885 343 22863ft 404kts
01-Mar-22 10:11 35.712471 -102.110259 342 24736ft 414kts
01-Mar-22 10:12 35.824731 -102.144029 0 26667ft 422kts
01-Mar-22 10:13 35.929628 -102.180937 317 28697ft 399kts
01-Mar-22 10:14 36.034338 -102.226364 341 30215ft 405kts
01-Mar-22 10:15 36.144578 -102.266767 339 30283ft 427kts
01-Mar-22 10:16 36.261840 -102.309732 339 30277ft 450kts
01-Mar-22 10:17 36.383856 -102.354738 340 30282ft 463kts
01-Mar-22 10:18 36.508028 -102.400616 340 30280ft 467kts
01-Mar-22 10:19 36.632497 -102.446803 340 30278ft 469kts
01-Mar-22 10:20 36.757726 -102.493437 340 30275ft 470kts
01-Mar-22 10:21 36.883179 -102.540330 341 30275ft 471kts
01-Mar-22 10:22 37.009030 -102.587527 341 30275ft 473kts
01-Mar-22 10:23 37.135133 -102.634992 341 30270ft 474kts
01-Mar-22 10:24 37.261615 -102.682753 341 30269ft 475kts
01-Mar-22 10:26 37.388225 -102.730736 342 30269ft 475kts
01-Mar-22 10:27 37.514455 -102.778986 340 30270ft 476kts
01-Mar-22 10:28 37.636528 -102.843117 336 30272ft 476kts
01-Mar-22 10:29 37.758457 -102.908516 336 30273ft 476kts
01-Mar-22 10:30 37.880451 -102.974165 336 30273ft 476kts
01-Mar-22 10:31 38.002406 -103.040018 336 30270ft 476kts
01-Mar-22 10:32 38.124388 -103.106127 336 30270ft 476kts
01-Mar-22 10:33 38.246227 -103.172395 336 30270ft 476kts
01-Mar-22 10:34 38.367505 -103.238598 336 30271ft 476kts
01-Mar-22 10:35 38.488931 -103.305611 336 30271ft 475kts
01-Mar-22 10:36 38.610136 -103.372925 336 30271ft 474kts
01-Mar-22 10:37 38.731160 -103.440365 335 30271ft 474kts
01-Mar-22 10:38 38.842907 -103.521005 312 28345ft 442kts
01-Mar-22 10:39 38.921557 -103.635225 310 26149ft 417kts
01-Mar-22 10:40 38.996940 -103.745104 310 24012ft 403kts
01-Mar-22 10:41 39.070223 -103.850696 310 21906ft 387kts
01-Mar-22 10:42 39.140343 -103.951595 310 20281ft 360kts
01-Mar-22 10:43 39.202535 -104.042094 310 19255ft 324kts
01-Mar-22 10:44 39.261069 -104.127529 310 18251ft 314kts
01-Mar-22 10:45 39.323159 -104.203387 332 17403ft 311kts
01-Mar-22 10:46 39.404146 -104.262692 328 16556ft 349kts
01-Mar-22 10:46 39.469732 -104.312601 325 16047ft 309kts
01-Mar-22 10:48 39.546213 -104.393207 319 15025ft 299kts
01-Mar-22 10:49 39.610295 -104.461067 319 14118ft 294kts
01-Mar-22 10:50 39.673706 -104.528405 319 13995ft 295kts
01-Mar-22 10:51 39.724089 -104.611007 303 13993ft 297kts
01-Mar-22 10:51 39.763073 -104.688117 303 11743ft 316kts
01-Mar-22 10:52 39.807692 -104.777362 302 11037ft 281kts
01-Mar-22 10:54 39.875485 -104.842425 357 10971ft 272kts
01-Mar-22 10:55 39.948362 -104.841543 359 10952ft 257kts
01-Mar-22 10:55 40.006469 -104.839935 359 10442ft 243kts
01-Mar-22 10:56 40.073142 -104.838107 0 8370ft 237kts
01-Mar-22 10:57 40.105652 -104.780225 86 8024ft 214kts
01-Mar-22 10:58 40.085010 -104.716470 146 8018ft 206kts
01-Mar-22 11:00 40.024669 -104.692654 190 8003ft 195kts
01-Mar-22 11:00 39.983778 -104.695188 180 7092ft 160kts
01-Mar-22 11:01 39.941673 -104.695554 182 6349ft 148kts
01-Mar-22 11:02 39.900970 -104.696014 182 5586ft 145kts
01-Mar-22 11:03 39.871374 -104.696364 180 5442ft 66kts
01-Mar-22 11:04 39.863080 -104.693528 155 5442ft 18kts
01-Mar-22 11:05 39.860295 -104.690476 91 5442ft 14kts
01-Mar-22 11:06 39.860222 -104.682688 93 5442ft 19kts
01-Mar-22 11:07 39.856000 -104.681536 99 5442ft 11kts
01-Mar-22 11:08 39.855323 -104.675293 91 5442ft 16kts
01-Mar-22 11:09 39.855243 -104.670155 104 5442ft 10kts
01-Mar-22 11:10 39.854208 -104.670150 226 5442ft 0kts
01-Mar-22 11:11 39.854208 -104.670150 226 5442ft 0kts
01-Mar-22 11:12 39.854208 -104.670150 226 5442ft 0kts
01-Mar-22 11:13 39.854208 -104.670150 226 5442ft 0kts

Navigation Log

Ident Type
Flight plan parsing failed, navigation log unavailable